sensor_id;sensor_type;location;lat;lon;timestamp;P1;durP1;ratioP1;P2;durP2;ratioP2
33714;SDS011;20043;50.998;4.754;2022-08-20T00:00:13;13.82;;;7.55;;
33714;SDS011;20043;50.998;4.754;2022-08-20T00:02:42;14.13;;;8.02;;
33714;SDS011;20043;50.998;4.754;2022-08-20T00:05:10;16.10;;;7.65;;
33714;SDS011;20043;50.998;4.754;2022-08-20T00:07:36;14.00;;;8.82;;
33714;SDS011;20043;50.998;4.754;2022-08-20T00:10:03;13.85;;;8.30;;
33714;SDS011;20043;50.998;4.754;2022-08-20T00:12:31;11.73;;;7.93;;
33714;SDS011;20043;50.998;4.754;2022-08-20T00:14:57;13.48;;;8.30;;
33714;SDS011;20043;50.998;4.754;2022-08-20T00:17:23;15.73;;;8.55;;
33714;SDS011;20043;50.998;4.754;2022-08-20T00:19:49;15.93;;;9.30;;
33714;SDS011;20043;50.998;4.754;2022-08-20T00:22:14;13.85;;;8.38;;
33714;SDS011;20043;50.998;4.754;2022-08-20T00:24:40;11.40;;;8.23;;
33714;SDS011;20043;50.998;4.754;2022-08-20T00:27:06;12.90;;;8.90;;
33714;SDS011;20043;50.998;4.754;2022-08-20T00:29:32;17.05;;;8.18;;
33714;SDS011;20043;50.998;4.754;2022-08-20T00:31:58;16.23;;;8.40;;
33714;SDS011;20043;50.998;4.754;2022-08-20T00:34:24;14.18;;;8.82;;
33714;SDS011;20043;50.998;4.754;2022-08-20T00:36:49;15.43;;;9.23;;
33714;SDS011;20043;50.998;4.754;2022-08-20T00:39:15;15.73;;;10.02;;
33714;SDS011;20043;50.998;4.754;2022-08-20T00:41:40;14.02;;;9.57;;
33714;SDS011;20043;50.998;4.754;2022-08-20T00:44:11;15.43;;;10.32;;
33714;SDS011;20043;50.998;4.754;2022-08-20T00:46:40;17.83;;;11.07;;
33714;SDS011;20043;50.998;4.754;2022-08-20T00:49:07;22.98;;;11.13;;
33714;SDS011;20043;50.998;4.754;2022-08-20T00:51:44;17.02;;;10.73;;
33714;SDS011;20043;50.998;4.754;2022-08-20T00:54:15;21.35;;;11.52;;
33714;SDS011;20043;50.998;4.754;2022-08-20T00:56:48;17.75;;;11.68;;
33714;SDS011;20043;50.998;4.754;2022-08-20T00:59:17;18.15;;;12.02;;
33714;SDS011;20043;50.998;4.754;2022-08-20T01:01:47;18.45;;;11.90;;
33714;SDS011;20043;50.998;4.754;2022-08-20T01:04:13;21.60;;;12.73;;
33714;SDS011;20043;50.998;4.754;2022-08-20T01:06:39;17.88;;;11.70;;
33714;SDS011;20043;50.998;4.754;2022-08-20T01:09:05;18.25;;;11.30;;
33714;SDS011;20043;50.998;4.754;2022-08-20T01:11:32;18.15;;;11.90;;
33714;SDS011;20043;50.998;4.754;2022-08-20T01:14:01;18.33;;;12.20;;
33714;SDS011;20043;50.998;4.754;2022-08-20T01:17:02;19.75;;;12.35;;
33714;SDS011;20043;50.998;4.754;2022-08-20T01:19:31;18.25;;;11.68;;
33714;SDS011;20043;50.998;4.754;2022-08-20T01:22:08;19.63;;;12.23;;
33714;SDS011;20043;50.998;4.754;2022-08-20T01:25:00;21.35;;;12.80;;
33714;SDS011;20043;50.998;4.754;2022-08-20T01:27:31;20.45;;;13.07;;
33714;SDS011;20043;50.998;4.754;2022-08-20T01:29:57;18.83;;;12.52;;
33714;SDS011;20043;50.998;4.754;2022-08-20T01:32:25;22.23;;;12.88;;
33714;SDS011;20043;50.998;4.754;2022-08-20T01:34:50;20.10;;;12.18;;
33714;SDS011;20043;50.998;4.754;2022-08-20T01:37:16;19.80;;;12.35;;
33714;SDS011;20043;50.998;4.754;2022-08-20T01:39:41;22.35;;;13.32;;
33714;SDS011;20043;50.998;4.754;2022-08-20T01:44:37;17.70;;;12.68;;
33714;SDS011;20043;50.998;4.754;2022-08-20T01:47:11;16.27;;;10.80;;
33714;SDS011;20043;50.998;4.754;2022-08-20T01:49:55;16.55;;;10.40;;
33714;SDS011;20043;50.998;4.754;2022-08-20T01:55:21;18.30;;;8.88;;
33714;SDS011;20043;50.998;4.754;2022-08-20T01:57:47;18.98;;;9.38;;
33714;SDS011;20043;50.998;4.754;2022-08-20T02:00:14;24.23;;;9.25;;
33714;SDS011;20043;50.998;4.754;2022-08-20T02:02:40;23.92;;;8.82;;
33714;SDS011;20043;50.998;4.754;2022-08-20T02:05:06;16.20;;;8.10;;
33714;SDS011;20043;50.998;4.754;2022-08-20T02:07:32;16.75;;;9.40;;
33714;SDS011;20043;50.998;4.754;2022-08-20T02:10:08;17.45;;;8.27;;
33714;SDS011;20043;50.998;4.754;2022-08-20T02:12:35;19.05;;;9.15;;
33714;SDS011;20043;50.998;4.754;2022-08-20T02:15:04;21.75;;;9.23;;
33714;SDS011;20043;50.998;4.754;2022-08-20T02:17:32;19.25;;;8.70;;
33714;SDS011;20043;50.998;4.754;2022-08-20T02:20:03;22.02;;;9.27;;
33714;SDS011;20043;50.998;4.754;2022-08-20T02:22:46;20.90;;;8.85;;
33714;SDS011;20043;50.998;4.754;2022-08-20T02:25:17;17.38;;;8.30;;
33714;SDS011;20043;50.998;4.754;2022-08-20T02:27:46;21.02;;;8.35;;
33714;SDS011;20043;50.998;4.754;2022-08-20T02:30:17;22.58;;;8.07;;
33714;SDS011;20043;50.998;4.754;2022-08-20T02:32:46;19.40;;;7.60;;
33714;SDS011;20043;50.998;4.754;2022-08-20T02:35:12;15.75;;;7.35;;
33714;SDS011;20043;50.998;4.754;2022-08-20T02:37:40;19.27;;;7.82;;
33714;SDS011;20043;50.998;4.754;2022-08-20T02:40:09;20.40;;;7.57;;
33714;SDS011;20043;50.998;4.754;2022-08-20T02:42:38;21.50;;;8.38;;
33714;SDS011;20043;50.998;4.754;2022-08-20T02:45:06;22.83;;;7.03;;
33714;SDS011;20043;50.998;4.754;2022-08-20T02:47:35;14.55;;;7.28;;
33714;SDS011;20043;50.998;4.754;2022-08-20T02:50:01;13.55;;;6.38;;
33714;SDS011;20043;50.998;4.754;2022-08-20T02:52:28;14.77;;;6.15;;
33714;SDS011;20043;50.998;4.754;2022-08-20T02:54:54;24.52;;;6.68;;
33714;SDS011;20043;50.998;4.754;2022-08-20T02:57:19;22.38;;;5.88;;
33714;SDS011;20043;50.998;4.754;2022-08-20T02:59:46;17.15;;;6.53;;
33714;SDS011;20043;50.998;4.754;2022-08-20T03:02:12;21.63;;;7.55;;
33714;SDS011;20043;50.998;4.754;2022-08-20T03:04:38;20.98;;;8.20;;
33714;SDS011;20043;50.998;4.754;2022-08-20T03:07:04;21.33;;;7.45;;
33714;SDS011;20043;50.998;4.754;2022-08-20T03:09:31;17.83;;;7.68;;
33714;SDS011;20043;50.998;4.754;2022-08-20T03:11:57;13.88;;;6.82;;
33714;SDS011;20043;50.998;4.754;2022-08-20T03:14:23;16.17;;;7.28;;
33714;SDS011;20043;50.998;4.754;2022-08-20T03:16:48;24.33;;;7.95;;
33714;SDS011;20043;50.998;4.754;2022-08-20T03:19:14;15.65;;;7.10;;
33714;SDS011;20043;50.998;4.754;2022-08-20T03:21:40;25.08;;;7.90;;
33714;SDS011;20043;50.998;4.754;2022-08-20T03:24:05;20.52;;;7.85;;
33714;SDS011;20043;50.998;4.754;2022-08-20T03:26:31;17.45;;;7.35;;
33714;SDS011;20043;50.998;4.754;2022-08-20T03:28:57;22.48;;;7.70;;
33714;SDS011;20043;50.998;4.754;2022-08-20T03:31:22;18.52;;;6.80;;
33714;SDS011;20043;50.998;4.754;2022-08-20T03:33:48;26.05;;;8.02;;
33714;SDS011;20043;50.998;4.754;2022-08-20T03:36:13;23.95;;;8.20;;
33714;SDS011;20043;50.998;4.754;2022-08-20T03:38:39;22.50;;;7.38;;
33714;SDS011;20043;50.998;4.754;2022-08-20T03:41:05;22.38;;;7.63;;
33714;SDS011;20043;50.998;4.754;2022-08-20T03:43:31;21.95;;;7.18;;
33714;SDS011;20043;50.998;4.754;2022-08-20T03:45:57;26.27;;;6.85;;
33714;SDS011;20043;50.998;4.754;2022-08-20T03:48:23;22.27;;;7.60;;
33714;SDS011;20043;50.998;4.754;2022-08-20T03:50:49;20.30;;;6.85;;
33714;SDS011;20043;50.998;4.754;2022-08-20T03:53:15;21.90;;;7.13;;
33714;SDS011;20043;50.998;4.754;2022-08-20T03:55:42;31.92;;;7.20;;
33714;SDS011;20043;50.998;4.754;2022-08-20T03:58:10;21.65;;;6.90;;
33714;SDS011;20043;50.998;4.754;2022-08-20T04:00:46;22.20;;;7.95;;
33714;SDS011;20043;50.998;4.754;2022-08-20T04:10:32;30.45;;;7.22;;
33714;SDS011;20043;50.998;4.754;2022-08-20T04:12:58;31.95;;;6.97;;
33714;SDS011;20043;50.998;4.754;2022-08-20T04:15:24;25.90;;;7.20;;
33714;SDS011;20043;50.998;4.754;2022-08-20T04:17:50;23.02;;;6.68;;
33714;SDS011;20043;50.998;4.754;2022-08-20T04:20:22;27.70;;;6.68;;
33714;SDS011;20043;50.998;4.754;2022-08-20T04:22:56;22.73;;;7.60;;
33714;SDS011;20043;50.998;4.754;2022-08-20T04:25:22;31.38;;;7.80;;
33714;SDS011;20043;50.998;4.754;2022-08-20T04:27:48;28.02;;;6.70;;
33714;SDS011;20043;50.998;4.754;2022-08-20T04:30:15;18.70;;;7.10;;
33714;SDS011;20043;50.998;4.754;2022-08-20T04:32:42;29.63;;;7.53;;
33714;SDS011;20043;50.998;4.754;2022-08-20T04:35:09;28.30;;;7.25;;
33714;SDS011;20043;50.998;4.754;2022-08-20T04:37:38;27.67;;;7.07;;
33714;SDS011;20043;50.998;4.754;2022-08-20T04:40:05;24.05;;;8.00;;
33714;SDS011;20043;50.998;4.754;2022-08-20T04:42:53;23.58;;;7.53;;
33714;SDS011;20043;50.998;4.754;2022-08-20T04:45:18;31.77;;;7.65;;
33714;SDS011;20043;50.998;4.754;2022-08-20T04:47:46;25.73;;;7.18;;
33714;SDS011;20043;50.998;4.754;2022-08-20T04:50:12;32.55;;;7.65;;
33714;SDS011;20043;50.998;4.754;2022-08-20T04:52:39;24.13;;;7.50;;
33714;SDS011;20043;50.998;4.754;2022-08-20T04:55:05;26.08;;;7.25;;
33714;SDS011;20043;50.998;4.754;2022-08-20T04:57:32;23.73;;;7.55;;
33714;SDS011;20043;50.998;4.754;2022-08-20T05:00:03;27.13;;;7.43;;
33714;SDS011;20043;50.998;4.754;2022-08-20T05:02:32;23.23;;;7.95;;
33714;SDS011;20043;50.998;4.754;2022-08-20T05:04:59;22.35;;;7.50;;
33714;SDS011;20043;50.998;4.754;2022-08-20T05:07:25;26.90;;;7.70;;
33714;SDS011;20043;50.998;4.754;2022-08-20T05:09:51;22.98;;;7.03;;
33714;SDS011;20043;50.998;4.754;2022-08-20T05:12:17;22.13;;;6.53;;
33714;SDS011;20043;50.998;4.754;2022-08-20T05:14:43;20.98;;;7.13;;
33714;SDS011;20043;50.998;4.754;2022-08-20T05:17:10;24.85;;;7.47;;
33714;SDS011;20043;50.998;4.754;2022-08-20T05:19:38;22.02;;;7.00;;
33714;SDS011;20043;50.998;4.754;2022-08-20T05:22:04;23.42;;;7.60;;
33714;SDS011;20043;50.998;4.754;2022-08-20T05:24:30;30.05;;;7.90;;
33714;SDS011;20043;50.998;4.754;2022-08-20T05:26:56;22.67;;;7.13;;
33714;SDS011;20043;50.998;4.754;2022-08-20T05:29:23;24.23;;;6.82;;
33714;SDS011;20043;50.998;4.754;2022-08-20T05:31:49;24.65;;;7.07;;
33714;SDS011;20043;50.998;4.754;2022-08-20T05:34:14;26.13;;;7.32;;
33714;SDS011;20043;50.998;4.754;2022-08-20T05:36:42;22.88;;;7.57;;
33714;SDS011;20043;50.998;4.754;2022-08-20T05:39:12;30.30;;;7.97;;
33714;SDS011;20043;50.998;4.754;2022-08-20T05:41:39;29.92;;;7.18;;
33714;SDS011;20043;50.998;4.754;2022-08-20T05:44:06;23.27;;;7.13;;
33714;SDS011;20043;50.998;4.754;2022-08-20T05:46:38;25.98;;;7.38;;
33714;SDS011;20043;50.998;4.754;2022-08-20T05:49:06;29.95;;;8.00;;
33714;SDS011;20043;50.998;4.754;2022-08-20T05:51:33;30.55;;;8.45;;
33714;SDS011;20043;50.998;4.754;2022-08-20T05:54:00;23.20;;;8.45;;
33714;SDS011;20043;50.998;4.754;2022-08-20T05:56:27;27.40;;;7.60;;
33714;SDS011;20043;50.998;4.754;2022-08-20T05:58:54;27.70;;;7.55;;
33714;SDS011;20043;50.998;4.754;2022-08-20T06:01:20;25.25;;;8.02;;
33714;SDS011;20043;50.998;4.754;2022-08-20T06:03:45;24.77;;;8.00;;
33714;SDS011;20043;50.998;4.754;2022-08-20T06:06:29;31.42;;;8.35;;
33714;SDS011;20043;50.998;4.754;2022-08-20T06:08:55;27.35;;;7.90;;
33714;SDS011;20043;50.998;4.754;2022-08-20T06:11:21;35.40;;;8.25;;
33714;SDS011;20043;50.998;4.754;2022-08-20T06:13:47;31.45;;;9.10;;
33714;SDS011;20043;50.998;4.754;2022-08-20T06:16:12;24.95;;;9.35;;
33714;SDS011;20043;50.998;4.754;2022-08-20T06:18:38;33.75;;;8.60;;
33714;SDS011;20043;50.998;4.754;2022-08-20T06:21:04;31.98;;;8.90;;
33714;SDS011;20043;50.998;4.754;2022-08-20T06:23:30;34.25;;;9.13;;
33714;SDS011;20043;50.998;4.754;2022-08-20T06:25:55;37.13;;;9.80;;
33714;SDS011;20043;50.998;4.754;2022-08-20T06:28:21;39.25;;;10.98;;
33714;SDS011;20043;50.998;4.754;2022-08-20T06:30:47;47.72;;;13.13;;
33714;SDS011;20043;50.998;4.754;2022-08-20T06:33:13;44.25;;;12.13;;
33714;SDS011;20043;50.998;4.754;2022-08-20T06:35:38;45.08;;;12.25;;
33714;SDS011;20043;50.998;4.754;2022-08-20T06:38:04;45.92;;;13.35;;
33714;SDS011;20043;50.998;4.754;2022-08-20T06:40:30;53.47;;;15.00;;
33714;SDS011;20043;50.998;4.754;2022-08-20T06:42:58;47.10;;;12.85;;
33714;SDS011;20043;50.998;4.754;2022-08-20T06:45:25;42.80;;;14.30;;
33714;SDS011;20043;50.998;4.754;2022-08-20T06:47:54;53.30;;;14.57;;
33714;SDS011;20043;50.998;4.754;2022-08-20T06:50:32;46.40;;;14.13;;
33714;SDS011;20043;50.998;4.754;2022-08-20T06:53:03;49.45;;;14.00;;
33714;SDS011;20043;50.998;4.754;2022-08-20T06:55:29;47.20;;;13.98;;
33714;SDS011;20043;50.998;4.754;2022-08-20T06:57:59;52.42;;;15.07;;
33714;SDS011;20043;50.998;4.754;2022-08-20T07:00:26;52.20;;;15.18;;
33714;SDS011;20043;50.998;4.754;2022-08-20T07:02:53;64.55;;;15.50;;
33714;SDS011;20043;50.998;4.754;2022-08-20T07:05:19;51.58;;;17.05;;
33714;SDS011;20043;50.998;4.754;2022-08-20T07:07:45;56.45;;;16.60;;
33714;SDS011;20043;50.998;4.754;2022-08-20T07:10:13;48.10;;;17.00;;
33714;SDS011;20043;50.998;4.754;2022-08-20T07:12:40;52.17;;;17.75;;
33714;SDS011;20043;50.998;4.754;2022-08-20T07:15:07;50.50;;;18.52;;
33714;SDS011;20043;50.998;4.754;2022-08-20T07:17:35;66.03;;;20.10;;
33714;SDS011;20043;50.998;4.754;2022-08-20T07:20:03;59.30;;;19.83;;
33714;SDS011;20043;50.998;4.754;2022-08-20T07:22:30;66.70;;;21.30;;
33714;SDS011;20043;50.998;4.754;2022-08-20T07:24:59;77.50;;;23.60;;
33714;SDS011;20043;50.998;4.754;2022-08-20T07:27:26;84.20;;;24.25;;
33714;SDS011;20043;50.998;4.754;2022-08-20T07:29:52;83.57;;;24.75;;
33714;SDS011;20043;50.998;4.754;2022-08-20T07:32:36;80.80;;;25.77;;
33714;SDS011;20043;50.998;4.754;2022-08-20T07:35:03;75.07;;;24.88;;
33714;SDS011;20043;50.998;4.754;2022-08-20T07:37:35;81.18;;;25.90;;
33714;SDS011;20043;50.998;4.754;2022-08-20T07:40:03;92.65;;;26.48;;
33714;SDS011;20043;50.998;4.754;2022-08-20T07:42:30;83.03;;;26.73;;
33714;SDS011;20043;50.998;4.754;2022-08-20T07:44:55;87.50;;;27.38;;
33714;SDS011;20043;50.998;4.754;2022-08-20T07:47:21;88.40;;;26.83;;
33714;SDS011;20043;50.998;4.754;2022-08-20T07:49:47;90.85;;;27.42;;
33714;SDS011;20043;50.998;4.754;2022-08-20T07:52:12;86.30;;;26.42;;
33714;SDS011;20043;50.998;4.754;2022-08-20T07:54:39;76.95;;;26.63;;
33714;SDS011;20043;50.998;4.754;2022-08-20T07:57:06;86.63;;;28.60;;
33714;SDS011;20043;50.998;4.754;2022-08-20T07:59:35;75.80;;;26.38;;
33714;SDS011;20043;50.998;4.754;2022-08-20T08:02:03;74.63;;;24.17;;
33714;SDS011;20043;50.998;4.754;2022-08-20T08:04:28;70.75;;;24.70;;
33714;SDS011;20043;50.998;4.754;2022-08-20T08:06:54;66.60;;;22.85;;
33714;SDS011;20043;50.998;4.754;2022-08-20T08:09:23;69.75;;;22.10;;
33714;SDS011;20043;50.998;4.754;2022-08-20T08:11:51;59.95;;;22.05;;
33714;SDS011;20043;50.998;4.754;2022-08-20T08:14:22;66.57;;;21.35;;
33714;SDS011;20043;50.998;4.754;2022-08-20T08:16:54;57.35;;;20.60;;
33714;SDS011;20043;50.998;4.754;2022-08-20T08:19:22;51.55;;;19.05;;
33714;SDS011;20043;50.998;4.754;2022-08-20T08:21:49;54.63;;;20.05;;
33714;SDS011;20043;50.998;4.754;2022-08-20T08:24:15;42.15;;;17.77;;
33714;SDS011;20043;50.998;4.754;2022-08-20T08:26:42;46.38;;;18.60;;
33714;SDS011;20043;50.998;4.754;2022-08-20T08:29:08;40.15;;;18.40;;
33714;SDS011;20043;50.998;4.754;2022-08-20T08:31:36;49.33;;;19.52;;
33714;SDS011;20043;50.998;4.754;2022-08-20T08:34:02;44.58;;;18.48;;
33714;SDS011;20043;50.998;4.754;2022-08-20T08:36:27;37.25;;;16.60;;
33714;SDS011;20043;50.998;4.754;2022-08-20T08:38:53;38.30;;;15.55;;
33714;SDS011;20043;50.998;4.754;2022-08-20T08:41:25;46.63;;;16.38;;
33714;SDS011;20043;50.998;4.754;2022-08-20T08:46:34;42.90;;;15.98;;
33714;SDS011;20043;50.998;4.754;2022-08-20T08:49:06;32.10;;;14.07;;
33714;SDS011;20043;50.998;4.754;2022-08-20T08:51:42;34.38;;;14.13;;
33714;SDS011;20043;50.998;4.754;2022-08-20T08:54:16;39.33;;;15.32;;
33714;SDS011;20043;50.998;4.754;2022-08-20T08:56:44;35.40;;;14.30;;
33714;SDS011;20043;50.998;4.754;2022-08-20T08:59:10;34.17;;;14.10;;
33714;SDS011;20043;50.998;4.754;2022-08-20T09:01:40;36.17;;;14.63;;
33714;SDS011;20043;50.998;4.754;2022-08-20T09:04:11;28.38;;;13.10;;
33714;SDS011;20043;50.998;4.754;2022-08-20T09:06:38;26.02;;;12.00;;
33714;SDS011;20043;50.998;4.754;2022-08-20T09:09:04;30.70;;;11.18;;
33714;SDS011;20043;50.998;4.754;2022-08-20T09:11:43;27.35;;;10.75;;
33714;SDS011;20043;50.998;4.754;2022-08-20T09:14:11;19.73;;;8.13;;
33714;SDS011;20043;50.998;4.754;2022-08-20T09:16:37;23.08;;;8.75;;
33714;SDS011;20043;50.998;4.754;2022-08-20T09:19:02;19.17;;;7.53;;
33714;SDS011;20043;50.998;4.754;2022-08-20T09:21:28;19.10;;;7.53;;
33714;SDS011;20043;50.998;4.754;2022-08-20T09:23:54;12.10;;;5.45;;
33714;SDS011;20043;50.998;4.754;2022-08-20T09:26:19;14.77;;;5.90;;
33714;SDS011;20043;50.998;4.754;2022-08-20T09:28:51;15.20;;;4.85;;
33714;SDS011;20043;50.998;4.754;2022-08-20T09:31:17;16.25;;;4.68;;
33714;SDS011;20043;50.998;4.754;2022-08-20T09:33:42;15.68;;;5.35;;
33714;SDS011;20043;50.998;4.754;2022-08-20T09:36:08;14.30;;;4.03;;
33714;SDS011;20043;50.998;4.754;2022-08-20T09:38:33;10.30;;;3.92;;
33714;SDS011;20043;50.998;4.754;2022-08-20T09:40:59;15.65;;;4.22;;
33714;SDS011;20043;50.998;4.754;2022-08-20T09:43:25;15.25;;;3.88;;
33714;SDS011;20043;50.998;4.754;2022-08-20T09:45:50;15.63;;;3.65;;
33714;SDS011;20043;50.998;4.754;2022-08-20T09:48:16;8.43;;;2.75;;
33714;SDS011;20043;50.998;4.754;2022-08-20T09:50:46;13.07;;;2.72;;
33714;SDS011;20043;50.998;4.754;2022-08-20T09:53:13;12.45;;;3.65;;
33714;SDS011;20043;50.998;4.754;2022-08-20T09:55:44;8.57;;;2.97;;
33714;SDS011;20043;50.998;4.754;2022-08-20T10:01:06;14.50;;;3.58;;
33714;SDS011;20043;50.998;4.754;2022-08-20T10:03:33;12.82;;;3.10;;
33714;SDS011;20043;50.998;4.754;2022-08-20T10:05:59;10.63;;;3.13;;
33714;SDS011;20043;50.998;4.754;2022-08-20T10:08:25;11.23;;;3.03;;
33714;SDS011;20043;50.998;4.754;2022-08-20T10:10:51;12.98;;;3.13;;
33714;SDS011;20043;50.998;4.754;2022-08-20T10:13:16;12.88;;;3.13;;
33714;SDS011;20043;50.998;4.754;2022-08-20T10:15:42;9.50;;;2.60;;
33714;SDS011;20043;50.998;4.754;2022-08-20T10:18:07;14.70;;;2.85;;
33714;SDS011;20043;50.998;4.754;2022-08-20T10:20:34;16.10;;;3.42;;
33714;SDS011;20043;50.998;4.754;2022-08-20T10:22:59;10.68;;;2.72;;
33714;SDS011;20043;50.998;4.754;2022-08-20T10:25:26;15.52;;;3.03;;
33714;SDS011;20043;50.998;4.754;2022-08-20T10:27:52;10.85;;;2.72;;
33714;SDS011;20043;50.998;4.754;2022-08-20T10:30:18;9.77;;;2.33;;
33714;SDS011;20043;50.998;4.754;2022-08-20T10:32:44;9.55;;;2.50;;
33714;SDS011;20043;50.998;4.754;2022-08-20T10:35:10;11.15;;;2.05;;
33714;SDS011;20043;50.998;4.754;2022-08-20T10:37:35;10.00;;;2.70;;
33714;SDS011;20043;50.998;4.754;2022-08-20T10:40:01;11.73;;;2.35;;
33714;SDS011;20043;50.998;4.754;2022-08-20T10:42:28;9.40;;;2.17;;
33714;SDS011;20043;50.998;4.754;2022-08-20T10:44:53;13.68;;;2.38;;
33714;SDS011;20043;50.998;4.754;2022-08-20T10:47:20;11.55;;;2.40;;
33714;SDS011;20043;50.998;4.754;2022-08-20T10:49:52;7.28;;;2.33;;
33714;SDS011;20043;50.998;4.754;2022-08-20T10:52:19;11.30;;;2.92;;
33714;SDS011;20043;50.998;4.754;2022-08-20T10:54:45;8.20;;;2.47;;
33714;SDS011;20043;50.998;4.754;2022-08-20T10:57:12;10.43;;;2.10;;
33714;SDS011;20043;50.998;4.754;2022-08-20T10:59:44;10.10;;;2.28;;
33714;SDS011;20043;50.998;4.754;2022-08-20T11:02:11;11.30;;;2.45;;
33714;SDS011;20043;50.998;4.754;2022-08-20T11:04:37;17.13;;;2.72;;
33714;SDS011;20043;50.998;4.754;2022-08-20T11:07:11;16.10;;;2.80;;
33714;SDS011;20043;50.998;4.754;2022-08-20T11:09:39;10.55;;;3.03;;
33714;SDS011;20043;50.998;4.754;2022-08-20T11:12:05;10.50;;;2.20;;
33714;SDS011;20043;50.998;4.754;2022-08-20T11:14:31;11.48;;;2.55;;
33714;SDS011;20043;50.998;4.754;2022-08-20T11:16:57;9.40;;;2.78;;
33714;SDS011;20043;50.998;4.754;2022-08-20T11:19:23;10.52;;;2.45;;
33714;SDS011;20043;50.998;4.754;2022-08-20T11:21:49;9.30;;;2.22;;
33714;SDS011;20043;50.998;4.754;2022-08-20T11:24:14;15.70;;;2.83;;
33714;SDS011;20043;50.998;4.754;2022-08-20T11:26:40;8.93;;;2.20;;
33714;SDS011;20043;50.998;4.754;2022-08-20T11:29:06;7.03;;;1.92;;
33714;SDS011;20043;50.998;4.754;2022-08-20T11:31:31;9.32;;;2.47;;
33714;SDS011;20043;50.998;4.754;2022-08-20T11:33:57;11.57;;;2.90;;
33714;SDS011;20043;50.998;4.754;2022-08-20T11:36:22;11.30;;;2.20;;
33714;SDS011;20043;50.998;4.754;2022-08-20T11:38:50;6.95;;;2.35;;
33714;SDS011;20043;50.998;4.754;2022-08-20T11:41:16;11.23;;;2.75;;
33714;SDS011;20043;50.998;4.754;2022-08-20T11:43:42;11.55;;;2.63;;
33714;SDS011;20043;50.998;4.754;2022-08-20T11:46:08;8.50;;;2.40;;
33714;SDS011;20043;50.998;4.754;2022-08-20T11:48:33;8.65;;;2.33;;
33714;SDS011;20043;50.998;4.754;2022-08-20T11:50:59;12.75;;;2.80;;
33714;SDS011;20043;50.998;4.754;2022-08-20T11:53:25;6.03;;;2.13;;
33714;SDS011;20043;50.998;4.754;2022-08-20T11:55:50;11.93;;;2.65;;
33714;SDS011;20043;50.998;4.754;2022-08-20T11:58:16;10.13;;;2.70;;
33714;SDS011;20043;50.998;4.754;2022-08-20T12:00:42;11.75;;;3.00;;
33714;SDS011;20043;50.998;4.754;2022-08-20T12:03:08;12.95;;;3.13;;
33714;SDS011;20043;50.998;4.754;2022-08-20T12:05:34;11.65;;;3.53;;
33714;SDS011;20043;50.998;4.754;2022-08-20T12:08:01;15.50;;;3.10;;
33714;SDS011;20043;50.998;4.754;2022-08-20T12:10:35;6.97;;;2.50;;
33714;SDS011;20043;50.998;4.754;2022-08-20T12:13:15;11.88;;;3.05;;
33714;SDS011;20043;50.998;4.754;2022-08-20T12:15:41;12.07;;;2.72;;
33714;SDS011;20043;50.998;4.754;2022-08-20T12:18:08;12.50;;;2.80;;
33714;SDS011;20043;50.998;4.754;2022-08-20T12:20:34;7.93;;;2.95;;
33714;SDS011;20043;50.998;4.754;2022-08-20T12:23:01;11.27;;;2.75;;
33714;SDS011;20043;50.998;4.754;2022-08-20T12:25:28;9.75;;;2.75;;
33714;SDS011;20043;50.998;4.754;2022-08-20T12:27:54;10.57;;;2.72;;
33714;SDS011;20043;50.998;4.754;2022-08-20T12:30:21;7.50;;;2.42;;
33714;SDS011;20043;50.998;4.754;2022-08-20T12:32:48;8.85;;;2.75;;
33714;SDS011;20043;50.998;4.754;2022-08-20T12:35:15;14.32;;;2.55;;
33714;SDS011;20043;50.998;4.754;2022-08-20T12:37:42;12.80;;;2.50;;
33714;SDS011;20043;50.998;4.754;2022-08-20T12:40:13;7.18;;;2.35;;
33714;SDS011;20043;50.998;4.754;2022-08-20T12:42:48;12.73;;;2.95;;
33714;SDS011;20043;50.998;4.754;2022-08-20T12:45:14;8.40;;;2.83;;
33714;SDS011;20043;50.998;4.754;2022-08-20T12:47:41;9.93;;;2.63;;
33714;SDS011;20043;50.998;4.754;2022-08-20T12:50:14;13.50;;;2.50;;
33714;SDS011;20043;50.998;4.754;2022-08-20T12:52:42;11.45;;;2.95;;
33714;SDS011;20043;50.998;4.754;2022-08-20T12:55:10;9.48;;;2.80;;
33714;SDS011;20043;50.998;4.754;2022-08-20T12:57:41;9.18;;;2.30;;
33714;SDS011;20043;50.998;4.754;2022-08-20T13:00:16;12.27;;;2.60;;
33714;SDS011;20043;50.998;4.754;2022-08-20T13:02:54;12.88;;;3.08;;
33714;SDS011;20043;50.998;4.754;2022-08-20T13:05:21;11.85;;;3.00;;
33714;SDS011;20043;50.998;4.754;2022-08-20T13:07:47;11.27;;;2.45;;
33714;SDS011;20043;50.998;4.754;2022-08-20T13:10:14;8.07;;;2.42;;
33714;SDS011;20043;50.998;4.754;2022-08-20T13:12:42;10.55;;;2.55;;
33714;SDS011;20043;50.998;4.754;2022-08-20T13:15:08;18.10;;;2.92;;
33714;SDS011;20043;50.998;4.754;2022-08-20T13:17:34;9.38;;;2.17;;
33714;SDS011;20043;50.998;4.754;2022-08-20T13:20:00;11.70;;;2.92;;
33714;SDS011;20043;50.998;4.754;2022-08-20T13:22:26;12.52;;;3.05;;
33714;SDS011;20043;50.998;4.754;2022-08-20T13:24:51;10.75;;;2.47;;
33714;SDS011;20043;50.998;4.754;2022-08-20T13:27:18;9.85;;;2.58;;
33714;SDS011;20043;50.998;4.754;2022-08-20T13:29:45;7.60;;;2.13;;
33714;SDS011;20043;50.998;4.754;2022-08-20T13:32:21;9.45;;;2.28;;
33714;SDS011;20043;50.998;4.754;2022-08-20T13:34:47;8.50;;;2.20;;
33714;SDS011;20043;50.998;4.754;2022-08-20T13:37:22;11.63;;;2.30;;
33714;SDS011;20043;50.998;4.754;2022-08-20T13:39:49;11.38;;;2.90;;
33714;SDS011;20043;50.998;4.754;2022-08-20T13:42:15;8.93;;;2.15;;
33714;SDS011;20043;50.998;4.754;2022-08-20T13:44:40;8.38;;;2.35;;
33714;SDS011;20043;50.998;4.754;2022-08-20T13:49:39;11.77;;;2.58;;
33714;SDS011;20043;50.998;4.754;2022-08-20T13:52:05;11.55;;;2.13;;
33714;SDS011;20043;50.998;4.754;2022-08-20T13:54:30;7.55;;;1.90;;
33714;SDS011;20043;50.998;4.754;2022-08-20T13:57:06;11.15;;;2.40;;
33714;SDS011;20043;50.998;4.754;2022-08-20T13:59:37;8.38;;;2.67;;
33714;SDS011;20043;50.998;4.754;2022-08-20T14:02:04;5.50;;;1.67;;
33714;SDS011;20043;50.998;4.754;2022-08-20T14:04:30;9.60;;;2.83;;
33714;SDS011;20043;50.998;4.754;2022-08-20T14:06:56;6.43;;;1.90;;
33714;SDS011;20043;50.998;4.754;2022-08-20T14:09:22;6.85;;;2.05;;
33714;SDS011;20043;50.998;4.754;2022-08-20T14:11:47;13.25;;;2.53;;
33714;SDS011;20043;50.998;4.754;2022-08-20T14:14:13;8.82;;;1.80;;
33714;SDS011;20043;50.998;4.754;2022-08-20T14:16:38;7.13;;;1.63;;
33714;SDS011;20043;50.998;4.754;2022-08-20T14:19:04;6.50;;;1.80;;
33714;SDS011;20043;50.998;4.754;2022-08-20T14:21:30;6.00;;;1.80;;
33714;SDS011;20043;50.998;4.754;2022-08-20T14:23:56;6.28;;;1.73;;
33714;SDS011;20043;50.998;4.754;2022-08-20T14:26:22;4.45;;;1.80;;
33714;SDS011;20043;50.998;4.754;2022-08-20T14:28:48;9.05;;;2.00;;
33714;SDS011;20043;50.998;4.754;2022-08-20T14:31:13;6.40;;;1.73;;
33714;SDS011;20043;50.998;4.754;2022-08-20T14:33:39;5.85;;;1.50;;
33714;SDS011;20043;50.998;4.754;2022-08-20T14:36:05;6.15;;;2.08;;
33714;SDS011;20043;50.998;4.754;2022-08-20T14:38:30;5.10;;;1.60;;
33714;SDS011;20043;50.998;4.754;2022-08-20T14:40:56;4.55;;;1.75;;
33714;SDS011;20043;50.998;4.754;2022-08-20T14:43:22;7.93;;;1.67;;
33714;SDS011;20043;50.998;4.754;2022-08-20T14:45:47;8.95;;;2.03;;
33714;SDS011;20043;50.998;4.754;2022-08-20T14:48:13;4.95;;;1.88;;
33714;SDS011;20043;50.998;4.754;2022-08-20T14:50:39;8.50;;;2.00;;
33714;SDS011;20043;50.998;4.754;2022-08-20T14:53:05;6.80;;;1.90;;
33714;SDS011;20043;50.998;4.754;2022-08-20T14:55:33;6.85;;;2.03;;